Amlin, Ohio
Current Conditions -  °F | °C
As of 9:53 AM on Monday 24 Nov 2014 (Local Time) from KOSU Reporting Station
Overcast Overcast  
Wind Chill: 62°   Ceiling: 4200
Heat Index: 62°   Visibility: 10mi
Dew Point: 51°   Wind: 29mph
Humidity: 67%   Direction: 200°SSW
Pressure: 29.3"   Gusts: 41mph
Location:  40.08°N, 83.18°W
Report Text: KOSU 241453Z 20025G36KT 10SM BKN042 OVC085 17/11 A2930 RMK AO2 PK WND 20040/1435 SLP920 60000 T01670106 55004
Loading
Personal Weather Stations






























Interactive Weather Map New forecast layout! Learn more

10-Day Weather Forecast

Advertisements
Track Severe Weather on mobile